sensor_id;sensor_type;location;lat;lon;timestamp;P1;durP1;ratioP1;P2;durP2;ratioP2
68792;SDS011;55778;54.346;10.210;2023-03-20T00:00:19;28.38;;;10.07;;
68792;SDS011;55778;54.346;10.210;2023-03-20T00:02:57;26.38;;;10.48;;
68792;SDS011;55778;54.346;10.210;2023-03-20T00:05:23;21.20;;;9.18;;
68792;SDS011;55778;54.346;10.210;2023-03-20T00:07:50;15.65;;;7.20;;
68792;SDS011;55778;54.346;10.210;2023-03-20T00:10:16;17.05;;;7.60;;
68792;SDS011;55778;54.346;10.210;2023-03-20T00:12:43;12.88;;;6.43;;
68792;SDS011;55778;54.346;10.210;2023-03-20T00:15:16;17.08;;;7.10;;
68792;SDS011;55778;54.346;10.210;2023-03-20T00:17:51;20.27;;;8.27;;
68792;SDS011;55778;54.346;10.210;2023-03-20T00:20:17;20.38;;;9.10;;
68792;SDS011;55778;54.346;10.210;2023-03-20T00:22:43;22.65;;;9.88;;
68792;SDS011;55778;54.346;10.210;2023-03-20T00:25:11;23.48;;;9.40;;
68792;SDS011;55778;54.346;10.210;2023-03-20T00:27:39;9.15;;;4.70;;
68792;SDS011;55778;54.346;10.210;2023-03-20T00:30:24;9.88;;;4.30;;
68792;SDS011;55778;54.346;10.210;2023-03-20T00:32:54;10.73;;;4.80;;
68792;SDS011;55778;54.346;10.210;2023-03-20T00:37:48;4.90;;;2.60;;
68792;SDS011;55778;54.346;10.210;2023-03-20T00:40:15;5.95;;;3.00;;
68792;SDS011;55778;54.346;10.210;2023-03-20T00:42:41;6.53;;;3.22;;
68792;SDS011;55778;54.346;10.210;2023-03-20T00:45:12;6.03;;;2.85;;
68792;SDS011;55778;54.346;10.210;2023-03-20T00:47:40;6.55;;;3.10;;
68792;SDS011;55778;54.346;10.210;2023-03-20T00:50:17;5.70;;;3.03;;
68792;SDS011;55778;54.346;10.210;2023-03-20T00:52:48;8.50;;;3.60;;
68792;SDS011;55778;54.346;10.210;2023-03-20T00:55:15;6.63;;;2.85;;
68792;SDS011;55778;54.346;10.210;2023-03-20T00:57:42;7.63;;;3.35;;
68792;SDS011;55778;54.346;10.210;2023-03-20T01:02:45;9.40;;;3.67;;
68792;SDS011;55778;54.346;10.210;2023-03-20T01:05:11;8.70;;;3.67;;
68792;SDS011;55778;54.346;10.210;2023-03-20T01:07:37;9.48;;;3.65;;
68792;SDS011;55778;54.346;10.210;2023-03-20T01:10:03;9.88;;;4.30;;
68792;SDS011;55778;54.346;10.210;2023-03-20T01:12:29;8.13;;;4.05;;
68792;SDS011;55778;54.346;10.210;2023-03-20T01:14:55;9.23;;;4.57;;
68792;SDS011;55778;54.346;10.210;2023-03-20T01:17:23;10.00;;;5.22;;
68792;SDS011;55778;54.346;10.210;2023-03-20T01:19:50;10.02;;;4.95;;
68792;SDS011;55778;54.346;10.210;2023-03-20T01:22:15;12.00;;;5.63;;
68792;SDS011;55778;54.346;10.210;2023-03-20T01:24:42;11.25;;;5.65;;
68792;SDS011;55778;54.346;10.210;2023-03-20T01:27:15;13.10;;;6.43;;
68792;SDS011;55778;54.346;10.210;2023-03-20T01:29:42;11.65;;;5.63;;
68792;SDS011;55778;54.346;10.210;2023-03-20T01:32:12;14.40;;;6.32;;
68792;SDS011;55778;54.346;10.210;2023-03-20T01:34:42;11.05;;;5.15;;
68792;SDS011;55778;54.346;10.210;2023-03-20T01:37:08;11.40;;;5.32;;
68792;SDS011;55778;54.346;10.210;2023-03-20T01:39:38;12.30;;;5.65;;
68792;SDS011;55778;54.346;10.210;2023-03-20T01:42:03;12.73;;;6.05;;
68792;SDS011;55778;54.346;10.210;2023-03-20T01:44:31;13.18;;;4.57;;
68792;SDS011;55778;54.346;10.210;2023-03-20T01:46:59;11.00;;;4.68;;
68792;SDS011;55778;54.346;10.210;2023-03-20T01:51:52;13.02;;;6.07;;
68792;SDS011;55778;54.346;10.210;2023-03-20T01:59:35;16.30;;;7.00;;
68792;SDS011;55778;54.346;10.210;2023-03-20T02:02:04;16.52;;;8.63;;
68792;SDS011;55778;54.346;10.210;2023-03-20T02:04:40;14.70;;;7.45;;
68792;SDS011;55778;54.346;10.210;2023-03-20T02:07:09;20.13;;;7.63;;
68792;SDS011;55778;54.346;10.210;2023-03-20T02:09:37;15.63;;;7.45;;
68792;SDS011;55778;54.346;10.210;2023-03-20T02:12:02;15.07;;;7.57;;
68792;SDS011;55778;54.346;10.210;2023-03-20T02:14:29;15.32;;;6.57;;
68792;SDS011;55778;54.346;10.210;2023-03-20T02:16:56;11.40;;;5.22;;
68792;SDS011;55778;54.346;10.210;2023-03-20T02:19:30;7.68;;;3.95;;
68792;SDS011;55778;54.346;10.210;2023-03-20T02:39:23;2.85;;;1.60;;
68792;SDS011;55778;54.346;10.210;2023-03-20T02:44:37;3.45;;;1.60;;
68792;SDS011;55778;54.346;10.210;2023-03-20T02:47:12;4.32;;;2.17;;
68792;SDS011;55778;54.346;10.210;2023-03-20T02:52:24;7.57;;;3.30;;
68792;SDS011;55778;54.346;10.210;2023-03-20T02:57:44;11.18;;;4.35;;
68792;SDS011;55778;54.346;10.210;2023-03-20T03:00:28;10.52;;;5.07;;
68792;SDS011;55778;54.346;10.210;2023-03-20T03:03:03;10.80;;;4.68;;
68792;SDS011;55778;54.346;10.210;2023-03-20T03:05:52;11.43;;;4.70;;
68792;SDS011;55778;54.346;10.210;2023-03-20T03:08:16;15.05;;;6.47;;
68792;SDS011;55778;54.346;10.210;2023-03-20T03:10:54;15.90;;;6.65;;
68792;SDS011;55778;54.346;10.210;2023-03-20T03:13:26;13.77;;;6.95;;
68792;SDS011;55778;54.346;10.210;2023-03-20T03:15:54;17.35;;;7.40;;
68792;SDS011;55778;54.346;10.210;2023-03-20T03:18:28;17.08;;;7.78;;
68792;SDS011;55778;54.346;10.210;2023-03-20T03:20:57;16.65;;;8.35;;
68792;SDS011;55778;54.346;10.210;2023-03-20T03:23:26;16.42;;;7.10;;
68792;SDS011;55778;54.346;10.210;2023-03-20T03:25:55;17.48;;;7.50;;
68792;SDS011;55778;54.346;10.210;2023-03-20T03:31:02;15.25;;;6.78;;
68792;SDS011;55778;54.346;10.210;2023-03-20T03:33:31;15.55;;;6.55;;
68792;SDS011;55778;54.346;10.210;2023-03-20T03:38:39;10.55;;;4.80;;
68792;SDS011;55778;54.346;10.210;2023-03-20T03:41:24;11.23;;;5.07;;
68792;SDS011;55778;54.346;10.210;2023-03-20T03:44:19;9.27;;;4.57;;
68792;SDS011;55778;54.346;10.210;2023-03-20T03:46:47;10.18;;;4.82;;
68792;SDS011;55778;54.346;10.210;2023-03-20T03:49:19;9.30;;;4.55;;
68792;SDS011;55778;54.346;10.210;2023-03-20T03:51:49;8.40;;;3.65;;
68792;SDS011;55778;54.346;10.210;2023-03-20T03:54:21;6.40;;;3.22;;
68792;SDS011;55778;54.346;10.210;2023-03-20T03:56:51;6.65;;;3.70;;
68792;SDS011;55778;54.346;10.210;2023-03-20T03:59:21;7.60;;;3.80;;
68792;SDS011;55778;54.346;10.210;2023-03-20T04:01:51;7.07;;;3.50;;
68792;SDS011;55778;54.346;10.210;2023-03-20T04:04:20;7.73;;;3.67;;
68792;SDS011;55778;54.346;10.210;2023-03-20T04:06:46;6.85;;;3.55;;
68792;SDS011;55778;54.346;10.210;2023-03-20T04:09:11;6.43;;;2.67;;
68792;SDS011;55778;54.346;10.210;2023-03-20T04:11:37;5.63;;;2.50;;
68792;SDS011;55778;54.346;10.210;2023-03-20T04:14:02;6.75;;;3.00;;
68792;SDS011;55778;54.346;10.210;2023-03-20T04:16:28;7.28;;;3.80;;
68792;SDS011;55778;54.346;10.210;2023-03-20T04:18:53;5.45;;;2.75;;
68792;SDS011;55778;54.346;10.210;2023-03-20T04:21:20;5.40;;;3.08;;
68792;SDS011;55778;54.346;10.210;2023-03-20T04:23:45;5.80;;;3.28;;
68792;SDS011;55778;54.346;10.210;2023-03-20T04:26:11;6.55;;;3.10;;
68792;SDS011;55778;54.346;10.210;2023-03-20T04:28:37;7.15;;;3.85;;
68792;SDS011;55778;54.346;10.210;2023-03-20T04:31:02;9.27;;;3.92;;
68792;SDS011;55778;54.346;10.210;2023-03-20T04:33:28;9.07;;;4.32;;
68792;SDS011;55778;54.346;10.210;2023-03-20T04:35:53;11.30;;;4.95;;
68792;SDS011;55778;54.346;10.210;2023-03-20T04:38:19;10.77;;;5.00;;
68792;SDS011;55778;54.346;10.210;2023-03-20T04:40:45;12.70;;;5.97;;
68792;SDS011;55778;54.346;10.210;2023-03-20T04:43:11;11.57;;;5.03;;
68792;SDS011;55778;54.346;10.210;2023-03-20T04:45:38;11.55;;;5.13;;
68792;SDS011;55778;54.346;10.210;2023-03-20T04:48:03;11.65;;;5.10;;
68792;SDS011;55778;54.346;10.210;2023-03-20T04:50:29;10.95;;;5.30;;
68792;SDS011;55778;54.346;10.210;2023-03-20T04:52:55;12.52;;;6.00;;
68792;SDS011;55778;54.346;10.210;2023-03-20T04:55:20;11.35;;;5.50;;
68792;SDS011;55778;54.346;10.210;2023-03-20T04:57:46;11.63;;;5.30;;
68792;SDS011;55778;54.346;10.210;2023-03-20T05:00:12;15.10;;;6.10;;
68792;SDS011;55778;54.346;10.210;2023-03-20T05:02:38;13.10;;;5.82;;
68792;SDS011;55778;54.346;10.210;2023-03-20T05:05:03;12.57;;;5.82;;
68792;SDS011;55778;54.346;10.210;2023-03-20T05:07:29;12.13;;;5.32;;
68792;SDS011;55778;54.346;10.210;2023-03-20T05:09:54;14.25;;;6.55;;
68792;SDS011;55778;54.346;10.210;2023-03-20T05:12:19;14.65;;;6.03;;
68792;SDS011;55778;54.346;10.210;2023-03-20T05:14:46;13.40;;;5.75;;
68792;SDS011;55778;54.346;10.210;2023-03-20T05:17:12;13.57;;;5.80;;
68792;SDS011;55778;54.346;10.210;2023-03-20T05:19:37;12.35;;;5.53;;
68792;SDS011;55778;54.346;10.210;2023-03-20T05:22:03;14.68;;;6.70;;
68792;SDS011;55778;54.346;10.210;2023-03-20T05:24:29;17.73;;;7.28;;
68792;SDS011;55778;54.346;10.210;2023-03-20T05:26:55;16.27;;;6.13;;
68792;SDS011;55778;54.346;10.210;2023-03-20T05:29:21;14.60;;;6.57;;
68792;SDS011;55778;54.346;10.210;2023-03-20T05:31:46;16.13;;;6.72;;
68792;SDS011;55778;54.346;10.210;2023-03-20T05:34:12;18.35;;;6.45;;
68792;SDS011;55778;54.346;10.210;2023-03-20T05:36:37;12.02;;;5.97;;
68792;SDS011;55778;54.346;10.210;2023-03-20T05:39:03;15.18;;;6.93;;
68792;SDS011;55778;54.346;10.210;2023-03-20T05:41:28;16.73;;;6.82;;
68792;SDS011;55778;54.346;10.210;2023-03-20T05:43:54;16.25;;;7.30;;
68792;SDS011;55778;54.346;10.210;2023-03-20T05:46:19;16.98;;;7.55;;
68792;SDS011;55778;54.346;10.210;2023-03-20T05:48:45;15.05;;;7.03;;
68792;SDS011;55778;54.346;10.210;2023-03-20T05:51:10;17.33;;;7.00;;
68792;SDS011;55778;54.346;10.210;2023-03-20T05:53:36;20.00;;;8.43;;
68792;SDS011;55778;54.346;10.210;2023-03-20T05:56:01;19.98;;;8.68;;
68792;SDS011;55778;54.346;10.210;2023-03-20T05:58:26;19.05;;;7.38;;
68792;SDS011;55778;54.346;10.210;2023-03-20T06:00:52;20.00;;;8.73;;
68792;SDS011;55778;54.346;10.210;2023-03-20T06:03:17;20.77;;;9.27;;
68792;SDS011;55778;54.346;10.210;2023-03-20T06:05:43;21.50;;;8.80;;
68792;SDS011;55778;54.346;10.210;2023-03-20T06:08:11;20.02;;;8.50;;
68792;SDS011;55778;54.346;10.210;2023-03-20T06:10:36;18.88;;;7.65;;
68792;SDS011;55778;54.346;10.210;2023-03-20T06:13:02;20.27;;;8.63;;
68792;SDS011;55778;54.346;10.210;2023-03-20T06:15:27;22.02;;;9.05;;
68792;SDS011;55778;54.346;10.210;2023-03-20T06:17:53;21.50;;;9.63;;
68792;SDS011;55778;54.346;10.210;2023-03-20T06:20:19;17.73;;;8.38;;
68792;SDS011;55778;54.346;10.210;2023-03-20T06:22:45;22.42;;;10.30;;
68792;SDS011;55778;54.346;10.210;2023-03-20T06:25:11;20.52;;;9.95;;
68792;SDS011;55778;54.346;10.210;2023-03-20T06:27:37;22.80;;;10.07;;
68792;SDS011;55778;54.346;10.210;2023-03-20T06:30:02;18.55;;;8.57;;
68792;SDS011;55778;54.346;10.210;2023-03-20T06:32:28;17.50;;;7.18;;
68792;SDS011;55778;54.346;10.210;2023-03-20T06:34:56;15.63;;;7.05;;
68792;SDS011;55778;54.346;10.210;2023-03-20T06:37:22;19.88;;;7.40;;
68792;SDS011;55778;54.346;10.210;2023-03-20T06:39:47;13.13;;;5.50;;
68792;SDS011;55778;54.346;10.210;2023-03-20T06:42:13;14.10;;;5.00;;
68792;SDS011;55778;54.346;10.210;2023-03-20T06:44:39;16.13;;;6.22;;
68792;SDS011;55778;54.346;10.210;2023-03-20T06:47:04;14.07;;;5.80;;
68792;SDS011;55778;54.346;10.210;2023-03-20T06:49:30;16.45;;;6.53;;
68792;SDS011;55778;54.346;10.210;2023-03-20T06:51:56;13.73;;;5.65;;
68792;SDS011;55778;54.346;10.210;2023-03-20T06:54:21;14.35;;;5.72;;
68792;SDS011;55778;54.346;10.210;2023-03-20T06:56:47;16.60;;;5.25;;
68792;SDS011;55778;54.346;10.210;2023-03-20T06:59:12;17.48;;;5.82;;
68792;SDS011;55778;54.346;10.210;2023-03-20T07:01:38;13.15;;;5.13;;
68792;SDS011;55778;54.346;10.210;2023-03-20T07:04:03;13.93;;;4.35;;
68792;SDS011;55778;54.346;10.210;2023-03-20T07:06:28;10.70;;;4.60;;
68792;SDS011;55778;54.346;10.210;2023-03-20T07:08:54;10.80;;;4.88;;
68792;SDS011;55778;54.346;10.210;2023-03-20T07:11:19;13.07;;;5.25;;
68792;SDS011;55778;54.346;10.210;2023-03-20T07:13:45;9.35;;;4.30;;
68792;SDS011;55778;54.346;10.210;2023-03-20T07:16:10;10.35;;;4.50;;
68792;SDS011;55778;54.346;10.210;2023-03-20T07:18:36;11.00;;;4.57;;
68792;SDS011;55778;54.346;10.210;2023-03-20T07:21:02;16.30;;;5.22;;
68792;SDS011;55778;54.346;10.210;2023-03-20T07:23:32;14.60;;;4.55;;
68792;SDS011;55778;54.346;10.210;2023-03-20T07:25:58;10.30;;;4.03;;
68792;SDS011;55778;54.346;10.210;2023-03-20T07:28:24;14.30;;;4.75;;
68792;SDS011;55778;54.346;10.210;2023-03-20T07:30:49;12.68;;;4.90;;
68792;SDS011;55778;54.346;10.210;2023-03-20T07:33:15;9.43;;;4.13;;
68792;SDS011;55778;54.346;10.210;2023-03-20T07:35:41;10.40;;;3.83;;
68792;SDS011;55778;54.346;10.210;2023-03-20T07:38:06;10.82;;;3.30;;
68792;SDS011;55778;54.346;10.210;2023-03-20T07:40:32;8.60;;;3.60;;
68792;SDS011;55778;54.346;10.210;2023-03-20T07:42:57;8.77;;;4.22;;
68792;SDS011;55778;54.346;10.210;2023-03-20T07:45:23;12.20;;;4.60;;
68792;SDS011;55778;54.346;10.210;2023-03-20T07:47:48;11.95;;;3.63;;
68792;SDS011;55778;54.346;10.210;2023-03-20T07:50:14;8.77;;;3.70;;
68792;SDS011;55778;54.346;10.210;2023-03-20T07:52:40;9.65;;;3.67;;
68792;SDS011;55778;54.346;10.210;2023-03-20T07:55:09;10.45;;;3.80;;
68792;SDS011;55778;54.346;10.210;2023-03-20T07:57:35;9.60;;;3.38;;
68792;SDS011;55778;54.346;10.210;2023-03-20T08:00:00;9.80;;;3.83;;
68792;SDS011;55778;54.346;10.210;2023-03-20T08:02:28;9.65;;;3.58;;
68792;SDS011;55778;54.346;10.210;2023-03-20T08:04:54;7.93;;;3.40;;
68792;SDS011;55778;54.346;10.210;2023-03-20T08:07:19;10.55;;;4.00;;
68792;SDS011;55778;54.346;10.210;2023-03-20T08:09:47;9.60;;;3.70;;
68792;SDS011;55778;54.346;10.210;2023-03-20T08:12:12;8.65;;;3.83;;
68792;SDS011;55778;54.346;10.210;2023-03-20T08:14:37;8.80;;;3.38;;
68792;SDS011;55778;54.346;10.210;2023-03-20T08:17:03;7.88;;;3.90;;
68792;SDS011;55778;54.346;10.210;2023-03-20T08:19:29;11.77;;;4.25;;
68792;SDS011;55778;54.346;10.210;2023-03-20T08:21:55;10.00;;;3.30;;
68792;SDS011;55778;54.346;10.210;2023-03-20T08:24:23;10.48;;;3.88;;
68792;SDS011;55778;54.346;10.210;2023-03-20T08:26:48;7.75;;;3.00;;
68792;SDS011;55778;54.346;10.210;2023-03-20T08:29:14;10.88;;;3.78;;
68792;SDS011;55778;54.346;10.210;2023-03-20T08:31:43;10.18;;;4.05;;
68792;SDS011;55778;54.346;10.210;2023-03-20T08:34:08;9.27;;;3.42;;
68792;SDS011;55778;54.346;10.210;2023-03-20T08:36:34;9.85;;;3.55;;
68792;SDS011;55778;54.346;10.210;2023-03-20T08:39:00;10.25;;;3.55;;
68792;SDS011;55778;54.346;10.210;2023-03-20T08:41:25;11.73;;;3.90;;
68792;SDS011;55778;54.346;10.210;2023-03-20T08:43:51;14.02;;;4.43;;
68792;SDS011;55778;54.346;10.210;2023-03-20T08:46:16;7.85;;;3.72;;
68792;SDS011;55778;54.346;10.210;2023-03-20T08:48:41;7.90;;;3.97;;
68792;SDS011;55778;54.346;10.210;2023-03-20T08:51:07;7.15;;;4.00;;
68792;SDS011;55778;54.346;10.210;2023-03-20T08:53:32;10.73;;;3.75;;
68792;SDS011;55778;54.346;10.210;2023-03-20T08:55:58;11.13;;;4.43;;
68792;SDS011;55778;54.346;10.210;2023-03-20T08:58:23;10.43;;;3.80;;
68792;SDS011;55778;54.346;10.210;2023-03-20T09:00:49;9.02;;;4.00;;
68792;SDS011;55778;54.346;10.210;2023-03-20T09:03:15;10.23;;;4.00;;
68792;SDS011;55778;54.346;10.210;2023-03-20T09:05:43;11.82;;;3.92;;
68792;SDS011;55778;54.346;10.210;2023-03-20T09:08:10;11.18;;;4.05;;
68792;SDS011;55778;54.346;10.210;2023-03-20T09:10:35;9.75;;;4.40;;
68792;SDS011;55778;54.346;10.210;2023-03-20T09:13:01;14.43;;;4.45;;
68792;SDS011;55778;54.346;10.210;2023-03-20T09:15:26;11.27;;;5.03;;
68792;SDS011;55778;54.346;10.210;2023-03-20T09:17:52;14.63;;;5.57;;
68792;SDS011;55778;54.346;10.210;2023-03-20T09:20:17;11.80;;;4.82;;
68792;SDS011;55778;54.346;10.210;2023-03-20T09:22:43;13.80;;;5.97;;
68792;SDS011;55778;54.346;10.210;2023-03-20T09:25:09;14.40;;;6.88;;
68792;SDS011;55778;54.346;10.210;2023-03-20T09:27:35;16.88;;;6.30;;
68792;SDS011;55778;54.346;10.210;2023-03-20T09:30:01;15.70;;;6.53;;
68792;SDS011;55778;54.346;10.210;2023-03-20T09:32:27;16.10;;;7.50;;
68792;SDS011;55778;54.346;10.210;2023-03-20T09:34:53;16.13;;;7.22;;
68792;SDS011;55778;54.346;10.210;2023-03-20T09:37:19;15.07;;;7.00;;
68792;SDS011;55778;54.346;10.210;2023-03-20T09:39:45;14.90;;;7.30;;
68792;SDS011;55778;54.346;10.210;2023-03-20T09:45:00;15.20;;;7.10;;
68792;SDS011;55778;54.346;10.210;2023-03-20T09:47:46;15.95;;;6.68;;
68792;SDS011;55778;54.346;10.210;2023-03-20T09:50:25;18.10;;;7.28;;
68792;SDS011;55778;54.346;10.210;2023-03-20T09:55:44;15.70;;;7.60;;
68792;SDS011;55778;54.346;10.210;2023-03-20T09:58:12;19.05;;;7.97;;
68792;SDS011;55778;54.346;10.210;2023-03-20T10:00:44;19.08;;;8.05;;
68792;SDS011;55778;54.346;10.210;2023-03-20T10:06:12;14.50;;;7.45;;
68792;SDS011;55778;54.346;10.210;2023-03-20T10:08:40;17.27;;;8.30;;
68792;SDS011;55778;54.346;10.210;2023-03-20T10:20:20;20.58;;;10.35;;
68792;SDS011;55778;54.346;10.210;2023-03-20T10:27:31;21.27;;;10.88;;
68792;SDS011;55778;54.346;10.210;2023-03-20T10:36:09;22.08;;;9.70;;
68792;SDS011;55778;54.346;10.210;2023-03-20T10:41:52;24.00;;;10.98;;
68792;SDS011;55778;54.346;10.210;2023-03-20T10:44:27;23.27;;;10.98;;
68792;SDS011;55778;54.346;10.210;2023-03-20T10:46:58;26.30;;;11.73;;
68792;SDS011;55778;54.346;10.210;2023-03-20T10:52:03;24.70;;;11.57;;
68792;SDS011;55778;54.346;10.210;2023-03-20T10:54:36;25.67;;;12.10;;
68792;SDS011;55778;54.346;10.210;2023-03-20T10:57:08;20.95;;;10.13;;
68792;SDS011;55778;54.346;10.210;2023-03-20T10:59:51;25.65;;;12.75;;
68792;SDS011;55778;54.346;10.210;2023-03-20T11:04:49;25.20;;;11.35;;
68792;SDS011;55778;54.346;10.210;2023-03-20T11:09:47;25.73;;;12.48;;
68792;SDS011;55778;54.346;10.210;2023-03-20T11:12:32;24.52;;;12.05;;
68792;SDS011;55778;54.346;10.210;2023-03-20T11:15:04;28.23;;;11.82;;
68792;SDS011;55778;54.346;10.210;2023-03-20T11:17:57;29.02;;;12.20;;
68792;SDS011;55778;54.346;10.210;2023-03-20T11:20:31;25.10;;;11.65;;
68792;SDS011;55778;54.346;10.210;2023-03-20T11:23:03;27.10;;;12.68;;
68792;SDS011;55778;54.346;10.210;2023-03-20T11:30:49;21.67;;;11.57;;
68792;SDS011;55778;54.346;10.210;2023-03-20T11:33:24;27.85;;;11.40;;
68792;SDS011;55778;54.346;10.210;2023-03-20T11:35:52;25.33;;;11.95;;
68792;SDS011;55778;54.346;10.210;2023-03-20T11:38:19;25.35;;;11.23;;
68792;SDS011;55778;54.346;10.210;2023-03-20T11:40:46;25.35;;;12.07;;
68792;SDS011;55778;54.346;10.210;2023-03-20T11:43:14;25.58;;;11.50;;
68792;SDS011;55778;54.346;10.210;2023-03-20T11:45:53;28.08;;;11.45;;
68792;SDS011;55778;54.346;10.210;2023-03-20T11:48:22;25.70;;;12.13;;
68792;SDS011;55778;54.346;10.210;2023-03-20T11:51:00;23.10;;;9.77;;
68792;SDS011;55778;54.346;10.210;2023-03-20T12:01:25;18.83;;;9.15;;
68792;SDS011;55778;54.346;10.210;2023-03-20T12:04:09;22.23;;;9.30;;
68792;SDS011;55778;54.346;10.210;2023-03-20T12:12:01;26.73;;;10.43;;
68792;SDS011;55778;54.346;10.210;2023-03-20T12:14:55;22.67;;;9.75;;
68792;SDS011;55778;54.346;10.210;2023-03-20T12:20:04;24.27;;;10.38;;
68792;SDS011;55778;54.346;10.210;2023-03-20T12:22:41;23.27;;;10.52;;
68792;SDS011;55778;54.346;10.210;2023-03-20T12:25:25;27.13;;;9.18;;
68792;SDS011;55778;54.346;10.210;2023-03-20T12:28:00;23.58;;;10.43;;
68792;SDS011;55778;54.346;10.210;2023-03-20T12:33:06;24.58;;;11.00;;
68792;SDS011;55778;54.346;10.210;2023-03-20T12:35:40;25.43;;;10.43;;
68792;SDS011;55778;54.346;10.210;2023-03-20T12:38:32;23.80;;;10.98;;
68792;SDS011;55778;54.346;10.210;2023-03-20T12:41:14;24.85;;;10.27;;
68792;SDS011;55778;54.346;10.210;2023-03-20T12:46:36;24.58;;;10.30;;
68792;SDS011;55778;54.346;10.210;2023-03-20T12:49:13;20.88;;;10.30;;
68792;SDS011;55778;54.346;10.210;2023-03-20T12:52:11;23.80;;;10.02;;
68792;SDS011;55778;54.346;10.210;2023-03-20T13:00:15;21.23;;;9.85;;
68792;SDS011;55778;54.346;10.210;2023-03-20T13:02:47;21.45;;;8.70;;
68792;SDS011;55778;54.346;10.210;2023-03-20T13:05:32;18.92;;;8.80;;
68792;SDS011;55778;54.346;10.210;2023-03-20T13:08:12;15.57;;;8.45;;
68792;SDS011;55778;54.346;10.210;2023-03-20T13:10:58;20.13;;;8.23;;
68792;SDS011;55778;54.346;10.210;2023-03-20T13:13:37;15.77;;;7.55;;
68792;SDS011;55778;54.346;10.210;2023-03-20T13:18:44;18.83;;;7.63;;
68792;SDS011;55778;54.346;10.210;2023-03-20T13:21:48;17.27;;;8.13;;
68792;SDS011;55778;54.346;10.210;2023-03-20T13:33:01;17.65;;;7.47;;
68792;SDS011;55778;54.346;10.210;2023-03-20T13:46:13;19.20;;;9.10;;
68792;SDS011;55778;54.346;10.210;2023-03-20T13:48:43;17.60;;;8.90;;
68792;SDS011;55778;54.346;10.210;2023-03-20T13:51:15;15.48;;;8.57;;
68792;SDS011;55778;54.346;10.210;2023-03-20T13:53:54;18.38;;;8.55;;
68792;SDS011;55778;54.346;10.210;2023-03-20T14:05:27;14.75;;;7.10;;
68792;SDS011;55778;54.346;10.210;2023-03-20T14:07:55;16.58;;;6.85;;
68792;SDS011;55778;54.346;10.210;2023-03-20T14:12:47;15.18;;;6.45;;
68792;SDS011;55778;54.346;10.210;2023-03-20T14:15:19;15.50;;;5.78;;
68792;SDS011;55778;54.346;10.210;2023-03-20T14:17:48;12.70;;;5.63;;
68792;SDS011;55778;54.346;10.210;2023-03-20T14:20:20;16.27;;;7.05;;
68792;SDS011;55778;54.346;10.210;2023-03-20T14:22:52;14.73;;;6.65;;
68792;SDS011;55778;54.346;10.210;2023-03-20T14:25:20;11.43;;;6.72;;
68792;SDS011;55778;54.346;10.210;2023-03-20T14:30:45;12.82;;;7.03;;
68792;SDS011;55778;54.346;10.210;2023-03-20T14:35:43;17.58;;;8.15;;
68792;SDS011;55778;54.346;10.210;2023-03-20T14:48:44;15.07;;;7.57;;
68792;SDS011;55778;54.346;10.210;2023-03-20T14:51:27;14.02;;;6.88;;
68792;SDS011;55778;54.346;10.210;2023-03-20T14:56:45;14.73;;;7.18;;
68792;SDS011;55778;54.346;10.210;2023-03-20T14:59:11;13.73;;;7.53;;
68792;SDS011;55778;54.346;10.210;2023-03-20T15:01:42;16.92;;;7.75;;
68792;SDS011;55778;54.346;10.210;2023-03-20T15:07:01;16.52;;;7.18;;
68792;SDS011;55778;54.346;10.210;2023-03-20T15:09:42;16.35;;;7.50;;
68792;SDS011;55778;54.346;10.210;2023-03-20T15:12:13;19.70;;;8.40;;
68792;SDS011;55778;54.346;10.210;2023-03-20T15:14:52;17.33;;;7.72;;
68792;SDS011;55778;54.346;10.210;2023-03-20T15:17:24;15.95;;;7.50;;
68792;SDS011;55778;54.346;10.210;2023-03-20T15:19:57;17.77;;;8.63;;
68792;SDS011;55778;54.346;10.210;2023-03-20T15:22:25;22.67;;;8.90;;
68792;SDS011;55778;54.346;10.210;2023-03-20T15:24:51;19.00;;;8.63;;
68792;SDS011;55778;54.346;10.210;2023-03-20T15:27:18;17.80;;;8.70;;
68792;SDS011;55778;54.346;10.210;2023-03-20T15:29:45;17.85;;;8.85;;
68792;SDS011;55778;54.346;10.210;2023-03-20T15:32:16;16.75;;;9.20;;
68792;SDS011;55778;54.346;10.210;2023-03-20T15:34:44;15.77;;;8.23;;
68792;SDS011;55778;54.346;10.210;2023-03-20T15:37:15;22.48;;;8.18;;
68792;SDS011;55778;54.346;10.210;2023-03-20T15:39:47;19.13;;;8.90;;
68792;SDS011;55778;54.346;10.210;2023-03-20T15:42:16;20.80;;;9.85;;
68792;SDS011;55778;54.346;10.210;2023-03-20T15:44:45;16.92;;;8.80;;
68792;SDS011;55778;54.346;10.210;2023-03-20T15:47:14;17.13;;;8.52;;
68792;SDS011;55778;54.346;10.210;2023-03-20T15:49:47;21.90;;;10.15;;
68792;SDS011;55778;54.346;10.210;2023-03-20T15:54:56;20.90;;;9.77;;
68792;SDS011;55778;54.346;10.210;2023-03-20T15:57:29;18.50;;;9.23;;
68792;SDS011;55778;54.346;10.210;2023-03-20T15:59:58;17.80;;;9.43;;
68792;SDS011;55778;54.346;10.210;2023-03-20T16:02:25;15.00;;;9.25;;
68792;SDS011;55778;54.346;10.210;2023-03-20T16:04:53;21.13;;;10.60;;
68792;SDS011;55778;54.346;10.210;2023-03-20T16:07:19;24.73;;;12.40;;
68792;SDS011;55778;54.346;10.210;2023-03-20T16:09:48;20.15;;;10.35;;
68792;SDS011;55778;54.346;10.210;2023-03-20T16:12:15;20.88;;;9.13;;
68792;SDS011;55778;54.346;10.210;2023-03-20T16:14:41;20.52;;;10.45;;
68792;SDS011;55778;54.346;10.210;2023-03-20T16:17:09;25.83;;;11.68;;
68792;SDS011;55778;54.346;10.210;2023-03-20T16:19:37;25.02;;;12.02;;
68792;SDS011;55778;54.346;10.210;2023-03-20T16:24:55;13.80;;;7.03;;
68792;SDS011;55778;54.346;10.210;2023-03-20T16:27:26;16.70;;;7.70;;
68792;SDS011;55778;54.346;10.210;2023-03-20T16:29:58;15.02;;;7.05;;
68792;SDS011;55778;54.346;10.210;2023-03-20T16:35:25;19.08;;;8.40;;
68792;SDS011;55778;54.346;10.210;2023-03-20T16:38:00;18.70;;;7.85;;
68792;SDS011;55778;54.346;10.210;2023-03-20T16:42:52;16.13;;;7.65;;
68792;SDS011;55778;54.346;10.210;2023-03-20T16:45:30;23.85;;;9.40;;
68792;SDS011;55778;54.346;10.210;2023-03-20T16:50:38;17.90;;;9.32;;
68792;SDS011;55778;54.346;10.210;2023-03-20T16:53:13;15.05;;;7.80;;
68792;SDS011;55778;54.346;10.210;2023-03-20T16:55:41;17.55;;;7.15;;
68792;SDS011;55778;54.346;10.210;2023-03-20T16:58:10;16.33;;;7.82;;
68792;SDS011;55778;54.346;10.210;2023-03-20T17:00:49;12.57;;;6.82;;
68792;SDS011;55778;54.346;10.210;2023-03-20T17:03:18;14.52;;;6.45;;
68792;SDS011;55778;54.346;10.210;2023-03-20T17:08:53;14.88;;;6.80;;
68792;SDS011;55778;54.346;10.210;2023-03-20T17:11:34;17.60;;;7.43;;
68792;SDS011;55778;54.346;10.210;2023-03-20T17:14:00;17.27;;;6.20;;
68792;SDS011;55778;54.346;10.210;2023-03-20T17:16:28;14.82;;;6.25;;
68792;SDS011;55778;54.346;10.210;2023-03-20T17:19:01;14.25;;;5.53;;
68792;SDS011;55778;54.346;10.210;2023-03-20T17:21:26;13.30;;;6.30;;
68792;SDS011;55778;54.346;10.210;2023-03-20T17:23:53;15.32;;;5.85;;
68792;SDS011;55778;54.346;10.210;2023-03-20T17:26:19;16.98;;;7.07;;
68792;SDS011;55778;54.346;10.210;2023-03-20T17:28:44;21.58;;;7.50;;
68792;SDS011;55778;54.346;10.210;2023-03-20T17:31:13;17.23;;;7.50;;
68792;SDS011;55778;54.346;10.210;2023-03-20T17:33:40;15.85;;;7.20;;
68792;SDS011;55778;54.346;10.210;2023-03-20T17:36:13;15.75;;;7.97;;
68792;SDS011;55778;54.346;10.210;2023-03-20T17:38:40;21.08;;;8.18;;